sensor_id;sensor_type;location;lat;lon;timestamp;pressure;altitude;pressure_sealevel;temperature
9985;BMP180;16737;50.932;6.780;2022-07-03T00:01:23;100460.00;;;25.10
9985;BMP180;16737;50.932;6.780;2022-07-03T00:03:51;100468.00;;;25.20
9985;BMP180;16737;50.932;6.780;2022-07-03T00:06:18;100460.00;;;25.20
9985;BMP180;16737;50.932;6.780;2022-07-03T00:08:46;100463.00;;;25.20
9985;BMP180;16737;50.932;6.780;2022-07-03T00:11:13;100472.00;;;25.10
9985;BMP180;16737;50.932;6.780;2022-07-03T00:13:40;100471.00;;;25.10
9985;BMP180;16737;50.932;6.780;2022-07-03T00:16:09;100466.00;;;25.10
9985;BMP180;16737;50.932;6.780;2022-07-03T00:18:36;100470.00;;;25.00
9985;BMP180;16737;50.932;6.780;2022-07-03T00:21:05;100462.00;;;25.00
9985;BMP180;16737;50.932;6.780;2022-07-03T00:23:40;100464.00;;;24.80
9985;BMP180;16737;50.932;6.780;2022-07-03T00:26:08;100462.00;;;24.90
9985;BMP180;16737;50.932;6.780;2022-07-03T00:28:36;100467.00;;;24.90
9985;BMP180;16737;50.932;6.780;2022-07-03T00:31:05;100426.00;;;24.90
9985;BMP180;16737;50.932;6.780;2022-07-03T00:33:36;100475.00;;;24.80
9985;BMP180;16737;50.932;6.780;2022-07-03T00:36:04;100474.00;;;24.80
9985;BMP180;16737;50.932;6.780;2022-07-03T00:38:33;100477.00;;;24.80
9985;BMP180;16737;50.932;6.780;2022-07-03T00:41:02;100476.00;;;24.70
9985;BMP180;16737;50.932;6.780;2022-07-03T00:43:29;100426.00;;;24.70
9985;BMP180;16737;50.932;6.780;2022-07-03T00:46:06;100474.00;;;24.60
9985;BMP180;16737;50.932;6.780;2022-07-03T00:48:37;100469.00;;;24.60
9985;BMP180;16737;50.932;6.780;2022-07-03T00:51:06;100476.00;;;24.50
9985;BMP180;16737;50.932;6.780;2022-07-03T00:53:36;100464.00;;;24.50
9985;BMP180;16737;50.932;6.780;2022-07-03T00:56:05;100469.00;;;24.50
9985;BMP180;16737;50.932;6.780;2022-07-03T00:58:33;100462.00;;;24.40
9985;BMP180;16737;50.932;6.780;2022-07-03T01:01:01;100460.00;;;24.40
9985;BMP180;16737;50.932;6.780;2022-07-03T01:03:31;100461.00;;;24.30
9985;BMP180;16737;50.932;6.780;2022-07-03T01:06:06;100456.00;;;24.30
9985;BMP180;16737;50.932;6.780;2022-07-03T01:08:41;100443.00;;;24.20
9985;BMP180;16737;50.932;6.780;2022-07-03T01:11:16;100444.00;;;24.20
9985;BMP180;16737;50.932;6.780;2022-07-03T01:13:56;100444.00;;;24.10
9985;BMP180;16737;50.932;6.780;2022-07-03T01:16:30;100439.00;;;24.10
9985;BMP180;16737;50.932;6.780;2022-07-03T01:19:04;100433.00;;;24.00
9985;BMP180;16737;50.932;6.780;2022-07-03T01:21:36;100438.00;;;24.00
9985;BMP180;16737;50.932;6.780;2022-07-03T01:24:34;100426.00;;;23.90
9985;BMP180;16737;50.932;6.780;2022-07-03T01:27:10;100428.00;;;23.90
9985;BMP180;16737;50.932;6.780;2022-07-03T01:30:00;100432.00;;;23.70
9985;BMP180;16737;50.932;6.780;2022-07-03T01:32:36;100434.00;;;23.80
9985;BMP180;16737;50.932;6.780;2022-07-03T01:35:07;100433.00;;;23.70
9985;BMP180;16737;50.932;6.780;2022-07-03T01:37:39;100433.00;;;23.70
9985;BMP180;16737;50.932;6.780;2022-07-03T01:40:08;100434.00;;;23.50
9985;BMP180;16737;50.932;6.780;2022-07-03T01:42:39;100427.00;;;23.60
9985;BMP180;16737;50.932;6.780;2022-07-03T01:45:09;100433.00;;;23.60
9985;BMP180;16737;50.932;6.780;2022-07-03T01:47:40;100425.00;;;23.50
9985;BMP180;16737;50.932;6.780;2022-07-03T01:50:11;100428.00;;;23.50
9985;BMP180;16737;50.932;6.780;2022-07-03T01:52:43;100429.00;;;23.40
9985;BMP180;16737;50.932;6.780;2022-07-03T01:55:13;100423.00;;;23.40
9985;BMP180;16737;50.932;6.780;2022-07-03T01:57:45;100431.00;;;23.40
9985;BMP180;16737;50.932;6.780;2022-07-03T02:00:16;100427.00;;;23.40
9985;BMP180;16737;50.932;6.780;2022-07-03T02:02:52;100421.00;;;23.10
9985;BMP180;16737;50.932;6.780;2022-07-03T02:05:37;100424.00;;;23.30
9985;BMP180;16737;50.932;6.780;2022-07-03T02:08:18;100419.00;;;23.20
9985;BMP180;16737;50.932;6.780;2022-07-03T02:11:07;100419.00;;;23.00
9985;BMP180;16737;50.932;6.780;2022-07-03T02:13:41;100419.00;;;23.20
9985;BMP180;16737;50.932;6.780;2022-07-03T02:16:19;100357.00;;;23.10
9985;BMP180;16737;50.932;6.780;2022-07-03T02:18:56;100407.00;;;23.10
9985;BMP180;16737;50.932;6.780;2022-07-03T02:21:28;100416.00;;;23.00
9985;BMP180;16737;50.932;6.780;2022-07-03T02:24:17;100399.00;;;23.00
9985;BMP180;16737;50.932;6.780;2022-07-03T02:26:53;100412.00;;;23.00
9985;BMP180;16737;50.932;6.780;2022-07-03T02:29:31;100411.00;;;22.90
9985;BMP180;16737;50.932;6.780;2022-07-03T02:32:03;100416.00;;;22.90
9985;BMP180;16737;50.932;6.780;2022-07-03T02:34:32;100414.00;;;22.90
9985;BMP180;16737;50.932;6.780;2022-07-03T02:37:10;100407.00;;;22.80
9985;BMP180;16737;50.932;6.780;2022-07-03T02:39:45;100420.00;;;22.80
9985;BMP180;16737;50.932;6.780;2022-07-03T02:42:29;100415.00;;;22.70
9985;BMP180;16737;50.932;6.780;2022-07-03T02:45:03;100420.00;;;22.70
9985;BMP180;16737;50.932;6.780;2022-07-03T02:47:45;100412.00;;;22.70
9985;BMP180;16737;50.932;6.780;2022-07-03T02:50:21;100414.00;;;22.70
9985;BMP180;16737;50.932;6.780;2022-07-03T02:53:04;100409.00;;;22.60
9985;BMP180;16737;50.932;6.780;2022-07-03T02:55:42;100408.00;;;22.50
9985;BMP180;16737;50.932;6.780;2022-07-03T02:58:49;100414.00;;;22.40
9985;BMP180;16737;50.932;6.780;2022-07-03T03:01:37;100340.00;;;22.50
9985;BMP180;16737;50.932;6.780;2022-07-03T03:04:21;100411.00;;;22.50
9985;BMP180;16737;50.932;6.780;2022-07-03T03:06:54;100408.00;;;22.50
9985;BMP180;16737;50.932;6.780;2022-07-03T03:09:27;100410.00;;;22.40
9985;BMP180;16737;50.932;6.780;2022-07-03T03:12:01;100417.00;;;22.40
9985;BMP180;16737;50.932;6.780;2022-07-03T03:14:38;100414.00;;;22.40
9985;BMP180;16737;50.932;6.780;2022-07-03T03:17:10;100418.00;;;22.40
9985;BMP180;16737;50.932;6.780;2022-07-03T03:19:45;100408.00;;;22.40
9985;BMP180;16737;50.932;6.780;2022-07-03T03:22:32;100413.00;;;22.30
9985;BMP180;16737;50.932;6.780;2022-07-03T03:25:04;100413.00;;;22.30
9985;BMP180;16737;50.932;6.780;2022-07-03T03:27:31;100410.00;;;22.30
9985;BMP180;16737;50.932;6.780;2022-07-03T03:29:58;100413.00;;;22.30
9985;BMP180;16737;50.932;6.780;2022-07-03T03:32:29;100418.00;;;22.20
9985;BMP180;16737;50.932;6.780;2022-07-03T03:34:56;100415.00;;;22.20
9985;BMP180;16737;50.932;6.780;2022-07-03T03:37:23;100420.00;;;22.20
9985;BMP180;16737;50.932;6.780;2022-07-03T03:39:50;100420.00;;;22.20
9985;BMP180;16737;50.932;6.780;2022-07-03T03:42:17;100414.00;;;22.20
9985;BMP180;16737;50.932;6.780;2022-07-03T03:44:44;100423.00;;;22.20
9985;BMP180;16737;50.932;6.780;2022-07-03T03:47:11;100418.00;;;22.10
9985;BMP180;16737;50.932;6.780;2022-07-03T03:49:40;100421.00;;;22.10
9985;BMP180;16737;50.932;6.780;2022-07-03T03:52:07;100420.00;;;22.10
9985;BMP180;16737;50.932;6.780;2022-07-03T03:54:34;100417.00;;;21.90
9985;BMP180;16737;50.932;6.780;2022-07-03T03:57:19;100422.00;;;22.10
9985;BMP180;16737;50.932;6.780;2022-07-03T03:59:46;100423.00;;;22.10
9985;BMP180;16737;50.932;6.780;2022-07-03T04:02:14;100417.00;;;22.10
9985;BMP180;16737;50.932;6.780;2022-07-03T04:04:42;100415.00;;;22.10
9985;BMP180;16737;50.932;6.780;2022-07-03T04:07:10;100433.00;;;22.00
9985;BMP180;16737;50.932;6.780;2022-07-03T04:09:37;100421.00;;;21.90
9985;BMP180;16737;50.932;6.780;2022-07-03T04:12:05;100423.00;;;22.10
9985;BMP180;16737;50.932;6.780;2022-07-03T04:14:32;100431.00;;;22.10
9985;BMP180;16737;50.932;6.780;2022-07-03T04:16:59;100436.00;;;21.80
9985;BMP180;16737;50.932;6.780;2022-07-03T04:19:26;100418.00;;;22.00
9985;BMP180;16737;50.932;6.780;2022-07-03T04:21:55;100438.00;;;22.10
9985;BMP180;16737;50.932;6.780;2022-07-03T04:24:22;100430.00;;;22.10
9985;BMP180;16737;50.932;6.780;2022-07-03T04:26:50;100442.00;;;22.10
9985;BMP180;16737;50.932;6.780;2022-07-03T04:29:17;100445.00;;;22.10
9985;BMP180;16737;50.932;6.780;2022-07-03T04:31:44;100446.00;;;22.10
9985;BMP180;16737;50.932;6.780;2022-07-03T04:34:11;100449.00;;;22.10
9985;BMP180;16737;50.932;6.780;2022-07-03T04:36:39;100449.00;;;22.10
9985;BMP180;16737;50.932;6.780;2022-07-03T04:39:07;100450.00;;;22.10
9985;BMP180;16737;50.932;6.780;2022-07-03T04:41:34;100449.00;;;22.20
9985;BMP180;16737;50.932;6.780;2022-07-03T04:44:01;100444.00;;;22.00
9985;BMP180;16737;50.932;6.780;2022-07-03T04:46:28;100449.00;;;22.20
9985;BMP180;16737;50.932;6.780;2022-07-03T04:48:55;100449.00;;;22.20
9985;BMP180;16737;50.932;6.780;2022-07-03T04:51:22;100453.00;;;22.20
9985;BMP180;16737;50.932;6.780;2022-07-03T04:53:49;100461.00;;;22.20
9985;BMP180;16737;50.932;6.780;2022-07-03T04:56:17;100458.00;;;22.20
9985;BMP180;16737;50.932;6.780;2022-07-03T04:58:45;100463.00;;;22.20
9985;BMP180;16737;50.932;6.780;2022-07-03T05:01:13;100473.00;;;22.20
9985;BMP180;16737;50.932;6.780;2022-07-03T05:03:40;100467.00;;;22.20
9985;BMP180;16737;50.932;6.780;2022-07-03T05:06:07;100464.00;;;22.20
9985;BMP180;16737;50.932;6.780;2022-07-03T05:08:34;100474.00;;;22.20
9985;BMP180;16737;50.932;6.780;2022-07-03T05:11:01;100468.00;;;22.20
9985;BMP180;16737;50.932;6.780;2022-07-03T05:13:30;100474.00;;;22.10
9985;BMP180;16737;50.932;6.780;2022-07-03T05:15:57;100465.00;;;22.10
9985;BMP180;16737;50.932;6.780;2022-07-03T05:18:24;100475.00;;;22.30
9985;BMP180;16737;50.932;6.780;2022-07-03T05:20:51;100478.00;;;22.40
9985;BMP180;16737;50.932;6.780;2022-07-03T05:23:18;100477.00;;;22.40
9985;BMP180;16737;50.932;6.780;2022-07-03T05:25:45;100481.00;;;22.50
9985;BMP180;16737;50.932;6.780;2022-07-03T05:28:12;100485.00;;;22.50
9985;BMP180;16737;50.932;6.780;2022-07-03T05:30:40;100487.00;;;22.50
9985;BMP180;16737;50.932;6.780;2022-07-03T05:33:07;100491.00;;;22.50
9985;BMP180;16737;50.932;6.780;2022-07-03T05:35:34;100492.00;;;22.60
9985;BMP180;16737;50.932;6.780;2022-07-03T05:38:01;100491.00;;;22.60
9985;BMP180;16737;50.932;6.780;2022-07-03T05:40:28;100500.00;;;22.60
9985;BMP180;16737;50.932;6.780;2022-07-03T05:42:55;100492.00;;;22.70
9985;BMP180;16737;50.932;6.780;2022-07-03T05:45:22;100497.00;;;22.70
9985;BMP180;16737;50.932;6.780;2022-07-03T05:47:51;100498.00;;;22.70
9985;BMP180;16737;50.932;6.780;2022-07-03T05:50:18;100499.00;;;22.70
9985;BMP180;16737;50.932;6.780;2022-07-03T05:52:45;100498.00;;;22.70
9985;BMP180;16737;50.932;6.780;2022-07-03T05:55:12;100496.00;;;22.80
9985;BMP180;16737;50.932;6.780;2022-07-03T05:57:39;100508.00;;;22.80
9985;BMP180;16737;50.932;6.780;2022-07-03T06:00:07;100509.00;;;22.80
9985;BMP180;16737;50.932;6.780;2022-07-03T06:02:34;100501.00;;;22.70
9985;BMP180;16737;50.932;6.780;2022-07-03T06:05:03;100500.00;;;22.80
9985;BMP180;16737;50.932;6.780;2022-07-03T06:07:30;100505.00;;;22.80
9985;BMP180;16737;50.932;6.780;2022-07-03T06:09:57;100498.00;;;22.80
9985;BMP180;16737;50.932;6.780;2022-07-03T06:12:24;100498.00;;;22.80
9985;BMP180;16737;50.932;6.780;2022-07-03T06:14:51;100507.00;;;22.90
9985;BMP180;16737;50.932;6.780;2022-07-03T06:17:18;100511.00;;;23.00
9985;BMP180;16737;50.932;6.780;2022-07-03T06:19:45;100517.00;;;23.00
9985;BMP180;16737;50.932;6.780;2022-07-03T06:22:14;100514.00;;;23.00
9985;BMP180;16737;50.932;6.780;2022-07-03T06:24:41;100516.00;;;23.10
9985;BMP180;16737;50.932;6.780;2022-07-03T06:27:08;100521.00;;;23.10
9985;BMP180;16737;50.932;6.780;2022-07-03T06:29:35;100519.00;;;23.20
9985;BMP180;16737;50.932;6.780;2022-07-03T06:32:02;100512.00;;;23.20
9985;BMP180;16737;50.932;6.780;2022-07-03T06:34:29;100532.00;;;23.30
9985;BMP180;16737;50.932;6.780;2022-07-03T06:36:56;100522.00;;;23.10
9985;BMP180;16737;50.932;6.780;2022-07-03T06:39:25;100522.00;;;23.30
9985;BMP180;16737;50.932;6.780;2022-07-03T06:41:52;100533.00;;;23.40
9985;BMP180;16737;50.932;6.780;2022-07-03T06:44:19;100531.00;;;23.40
9985;BMP180;16737;50.932;6.780;2022-07-03T06:46:46;100538.00;;;23.40
9985;BMP180;16737;50.932;6.780;2022-07-03T06:49:13;100544.00;;;23.30
9985;BMP180;16737;50.932;6.780;2022-07-03T06:51:40;100524.00;;;23.50
9985;BMP180;16737;50.932;6.780;2022-07-03T06:54:07;100528.00;;;23.60
9985;BMP180;16737;50.932;6.780;2022-07-03T06:56:35;100542.00;;;23.60
9985;BMP180;16737;50.932;6.780;2022-07-03T06:59:03;100537.00;;;23.70
9985;BMP180;16737;50.932;6.780;2022-07-03T07:01:30;100534.00;;;23.70
9985;BMP180;16737;50.932;6.780;2022-07-03T07:03:57;100537.00;;;23.80
9985;BMP180;16737;50.932;6.780;2022-07-03T07:06:24;100532.00;;;23.70
9985;BMP180;16737;50.932;6.780;2022-07-03T07:08:51;100532.00;;;23.90
9985;BMP180;16737;50.932;6.780;2022-07-03T07:11:18;100533.00;;;24.00
9985;BMP180;16737;50.932;6.780;2022-07-03T07:13:46;100531.00;;;24.00
9985;BMP180;16737;50.932;6.780;2022-07-03T07:16:13;100532.00;;;24.10
9985;BMP180;16737;50.932;6.780;2022-07-03T07:18:41;100509.00;;;24.20
9985;BMP180;16737;50.932;6.780;2022-07-03T07:21:08;100530.00;;;24.20
9985;BMP180;16737;50.932;6.780;2022-07-03T07:23:36;100504.00;;;24.30
9985;BMP180;16737;50.932;6.780;2022-07-03T07:26:03;100528.00;;;24.30
9985;BMP180;16737;50.932;6.780;2022-07-03T07:28:30;100524.00;;;24.40
9985;BMP180;16737;50.932;6.780;2022-07-03T07:31:00;100521.00;;;24.40
9985;BMP180;16737;50.932;6.780;2022-07-03T07:33:27;100528.00;;;24.50
9985;BMP180;16737;50.932;6.780;2022-07-03T07:35:54;100506.00;;;24.50
9985;BMP180;16737;50.932;6.780;2022-07-03T07:38:21;100534.00;;;24.60
9985;BMP180;16737;50.932;6.780;2022-07-03T07:40:48;100535.00;;;24.60
9985;BMP180;16737;50.932;6.780;2022-07-03T07:43:15;100542.00;;;24.70
9985;BMP180;16737;50.932;6.780;2022-07-03T07:45:42;100545.00;;;24.70
9985;BMP180;16737;50.932;6.780;2022-07-03T07:48:11;100527.00;;;24.80
9985;BMP180;16737;50.932;6.780;2022-07-03T07:50:38;100542.00;;;24.80
9985;BMP180;16737;50.932;6.780;2022-07-03T07:53:05;100543.00;;;24.90
9985;BMP180;16737;50.932;6.780;2022-07-03T07:55:32;100539.00;;;24.80
9985;BMP180;16737;50.932;6.780;2022-07-03T07:57:59;100546.00;;;24.70
9985;BMP180;16737;50.932;6.780;2022-07-03T08:00:27;100539.00;;;25.00
9985;BMP180;16737;50.932;6.780;2022-07-03T08:02:54;100544.00;;;24.90
9985;BMP180;16737;50.932;6.780;2022-07-03T08:05:39;100541.00;;;25.10
9985;BMP180;16737;50.932;6.780;2022-07-03T08:08:09;100548.00;;;25.10
9985;BMP180;16737;50.932;6.780;2022-07-03T08:10:40;100546.00;;;25.20
9985;BMP180;16737;50.932;6.780;2022-07-03T08:13:08;100539.00;;;25.20
9985;BMP180;16737;50.932;6.780;2022-07-03T08:15:36;100552.00;;;25.10
9985;BMP180;16737;50.932;6.780;2022-07-03T08:18:04;100546.00;;;25.40
9985;BMP180;16737;50.932;6.780;2022-07-03T08:20:32;100550.00;;;25.50
9985;BMP180;16737;50.932;6.780;2022-07-03T08:23:01;100514.00;;;25.50
9985;BMP180;16737;50.932;6.780;2022-07-03T08:25:29;100557.00;;;25.60
9985;BMP180;16737;50.932;6.780;2022-07-03T08:27:57;100558.00;;;25.60
9985;BMP180;16737;50.932;6.780;2022-07-03T08:30:24;100550.00;;;25.70
9985;BMP180;16737;50.932;6.780;2022-07-03T08:32:54;100558.00;;;25.70
9985;BMP180;16737;50.932;6.780;2022-07-03T08:35:22;100560.00;;;25.80
9985;BMP180;16737;50.932;6.780;2022-07-03T08:37:49;100560.00;;;25.90
9985;BMP180;16737;50.932;6.780;2022-07-03T08:40:20;100554.00;;;25.90
9985;BMP180;16737;50.932;6.780;2022-07-03T08:42:49;100535.00;;;26.00
9985;BMP180;16737;50.932;6.780;2022-07-03T08:45:19;100551.00;;;26.00
9985;BMP180;16737;50.932;6.780;2022-07-03T08:47:49;100543.00;;;26.10
9985;BMP180;16737;50.932;6.780;2022-07-03T08:50:18;100555.00;;;26.10
9985;BMP180;16737;50.932;6.780;2022-07-03T08:52:47;100548.00;;;26.30
9985;BMP180;16737;50.932;6.780;2022-07-03T08:55:16;100553.00;;;26.40
9985;BMP180;16737;50.932;6.780;2022-07-03T08:57:47;100553.00;;;26.50
9985;BMP180;16737;50.932;6.780;2022-07-03T09:00:17;100554.00;;;26.60
9985;BMP180;16737;50.932;6.780;2022-07-03T09:02:48;100549.00;;;26.70
9985;BMP180;16737;50.932;6.780;2022-07-03T09:05:17;100554.00;;;26.80
9985;BMP180;16737;50.932;6.780;2022-07-03T09:07:46;100556.00;;;27.00
9985;BMP180;16737;50.932;6.780;2022-07-03T09:10:17;100555.00;;;27.00
9985;BMP180;16737;50.932;6.780;2022-07-03T09:12:47;100561.00;;;27.10
9985;BMP180;16737;50.932;6.780;2022-07-03T09:15:15;100546.00;;;27.30
9985;BMP180;16737;50.932;6.780;2022-07-03T09:17:58;100551.00;;;27.30
9985;BMP180;16737;50.932;6.780;2022-07-03T09:20:32;100563.00;;;27.40
9985;BMP180;16737;50.932;6.780;2022-07-03T09:23:14;100546.00;;;27.50
9985;BMP180;16737;50.932;6.780;2022-07-03T09:25:55;100546.00;;;27.60
9985;BMP180;16737;50.932;6.780;2022-07-03T09:28:41;100492.00;;;27.70
9985;BMP180;16737;50.932;6.780;2022-07-03T09:31:11;100550.00;;;27.80
9985;BMP180;16737;50.932;6.780;2022-07-03T09:33:53;100562.00;;;27.80
9985;BMP180;16737;50.932;6.780;2022-07-03T09:36:23;100562.00;;;27.90
9985;BMP180;16737;50.932;6.780;2022-07-03T09:39:14;100563.00;;;28.00
9985;BMP180;16737;50.932;6.780;2022-07-03T09:41:56;100564.00;;;28.00
9985;BMP180;16737;50.932;6.780;2022-07-03T09:44:33;100563.00;;;28.10
9985;BMP180;16737;50.932;6.780;2022-07-03T09:47:13;100568.00;;;28.30
9985;BMP180;16737;50.932;6.780;2022-07-03T09:49:50;100553.00;;;28.20
9985;BMP180;16737;50.932;6.780;2022-07-03T09:52:43;100555.00;;;28.30
9985;BMP180;16737;50.932;6.780;2022-07-03T09:55:18;100552.00;;;28.50
9985;BMP180;16737;50.932;6.780;2022-07-03T09:57:59;100555.00;;;28.60
9985;BMP180;16737;50.932;6.780;2022-07-03T10:00:31;100557.00;;;28.70
9985;BMP180;16737;50.932;6.780;2022-07-03T10:03:01;100553.00;;;28.60
9985;BMP180;16737;50.932;6.780;2022-07-03T10:05:31;100551.00;;;28.80
9985;BMP180;16737;50.932;6.780;2022-07-03T10:08:01;100555.00;;;28.90
9985;BMP180;16737;50.932;6.780;2022-07-03T10:10:41;100511.00;;;28.30
9985;BMP180;16737;50.932;6.780;2022-07-03T10:13:09;100559.00;;;29.00
9985;BMP180;16737;50.932;6.780;2022-07-03T10:15:39;100550.00;;;29.10
9985;BMP180;16737;50.932;6.780;2022-07-03T10:18:09;100555.00;;;29.20
9985;BMP180;16737;50.932;6.780;2022-07-03T10:20:45;100557.00;;;29.30
9985;BMP180;16737;50.932;6.780;2022-07-03T10:23:14;100560.00;;;29.40
9985;BMP180;16737;50.932;6.780;2022-07-03T10:25:43;100541.00;;;29.50
9985;BMP180;16737;50.932;6.780;2022-07-03T10:28:12;100538.00;;;29.60
9985;BMP180;16737;50.932;6.780;2022-07-03T10:30:44;100550.00;;;29.80
9985;BMP180;16737;50.932;6.780;2022-07-03T10:33:11;100554.00;;;29.90
9985;BMP180;16737;50.932;6.780;2022-07-03T10:35:41;100547.00;;;30.00
9985;BMP180;16737;50.932;6.780;2022-07-03T10:38:36;100548.00;;;30.10
9985;BMP180;16737;50.932;6.780;2022-07-03T10:41:11;100560.00;;;30.20
9985;BMP180;16737;50.932;6.780;2022-07-03T10:43:58;100551.00;;;30.30
9985;BMP180;16737;50.932;6.780;2022-07-03T10:46:44;100555.00;;;30.30
9985;BMP180;16737;50.932;6.780;2022-07-03T10:49:12;100542.00;;;30.40
9985;BMP180;16737;50.932;6.780;2022-07-03T10:51:54;100543.00;;;30.40
9985;BMP180;16737;50.932;6.780;2022-07-03T10:54:24;100551.00;;;30.50
9985;BMP180;16737;50.932;6.780;2022-07-03T10:57:15;100552.00;;;30.50
9985;BMP180;16737;50.932;6.780;2022-07-03T11:02:49;100532.00;;;30.60
9985;BMP180;16737;50.932;6.780;2022-07-03T11:05:22;100541.00;;;30.60
9985;BMP180;16737;50.932;6.780;2022-07-03T11:08:12;100546.00;;;30.60
9985;BMP180;16737;50.932;6.780;2022-07-03T11:10:42;100531.00;;;30.60
9985;BMP180;16737;50.932;6.780;2022-07-03T11:13:18;100501.00;;;30.70
9985;BMP180;16737;50.932;6.780;2022-07-03T11:15:51;100535.00;;;30.70
9985;BMP180;16737;50.932;6.780;2022-07-03T11:18:29;100539.00;;;30.80
9985;BMP180;16737;50.932;6.780;2022-07-03T11:21:31;100530.00;;;30.80
9985;BMP180;16737;50.932;6.780;2022-07-03T11:24:28;100531.00;;;30.90
9985;BMP180;16737;50.932;6.780;2022-07-03T11:27:21;100530.00;;;30.70
9985;BMP180;16737;50.932;6.780;2022-07-03T11:29:58;100531.00;;;31.00
9985;BMP180;16737;50.932;6.780;2022-07-03T11:32:49;100530.00;;;31.00
9985;BMP180;16737;50.932;6.780;2022-07-03T11:36:00;100510.00;;;31.00
9985;BMP180;16737;50.932;6.780;2022-07-03T11:38:29;100536.00;;;30.90
9985;BMP180;16737;50.932;6.780;2022-07-03T11:40:59;100482.00;;;31.10
9985;BMP180;16737;50.932;6.780;2022-07-03T11:43:26;100530.00;;;31.20
9985;BMP180;16737;50.932;6.780;2022-07-03T11:45:54;100520.00;;;31.00
9985;BMP180;16737;50.932;6.780;2022-07-03T11:48:23;100520.00;;;31.10
9985;BMP180;16737;50.932;6.780;2022-07-03T11:50:52;100516.00;;;31.30
9985;BMP180;16737;50.932;6.780;2022-07-03T11:53:26;100524.00;;;31.30
9985;BMP180;16737;50.932;6.780;2022-07-03T11:55:57;100520.00;;;31.30
9985;BMP180;16737;50.932;6.780;2022-07-03T11:58:25;100527.00;;;31.30
9985;BMP180;16737;50.932;6.780;2022-07-03T12:00:53;100520.00;;;31.40
9985;BMP180;16737;50.932;6.780;2022-07-03T12:03:24;100510.00;;;31.40
9985;BMP180;16737;50.932;6.780;2022-07-03T12:05:54;100515.00;;;31.40
9985;BMP180;16737;50.932;6.780;2022-07-03T12:08:25;100518.00;;;31.40
9985;BMP180;16737;50.932;6.780;2022-07-03T12:11:02;100519.00;;;31.30
9985;BMP180;16737;50.932;6.780;2022-07-03T12:13:29;100520.00;;;31.50
9985;BMP180;16737;50.932;6.780;2022-07-03T12:16:09;100522.00;;;31.30
9985;BMP180;16737;50.932;6.780;2022-07-03T12:18:48;100513.00;;;31.40
9985;BMP180;16737;50.932;6.780;2022-07-03T12:21:17;100521.00;;;31.40
9985;BMP180;16737;50.932;6.780;2022-07-03T12:23:49;100520.00;;;31.40
9985;BMP180;16737;50.932;6.780;2022-07-03T12:26:30;100522.00;;;31.30
9985;BMP180;16737;50.932;6.780;2022-07-03T12:28:59;100519.00;;;31.30
9985;BMP180;16737;50.932;6.780;2022-07-03T12:31:28;100526.00;;;31.10
9985;BMP180;16737;50.932;6.780;2022-07-03T12:33:57;100527.00;;;31.10
9985;BMP180;16737;50.932;6.780;2022-07-03T12:36:24;100523.00;;;31.10
9985;BMP180;16737;50.932;6.780;2022-07-03T12:38:55;100525.00;;;30.90
9985;BMP180;16737;50.932;6.780;2022-07-03T12:41:23;100527.00;;;30.90
9985;BMP180;16737;50.932;6.780;2022-07-03T12:43:52;100504.00;;;30.70
9985;BMP180;16737;50.932;6.780;2022-07-03T12:46:22;100508.00;;;30.80
9985;BMP180;16737;50.932;6.780;2022-07-03T12:48:52;100517.00;;;30.80
9985;BMP180;16737;50.932;6.780;2022-07-03T12:51:40;100517.00;;;30.70
9985;BMP180;16737;50.932;6.780;2022-07-03T12:54:12;100507.00;;;30.80
9985;BMP180;16737;50.932;6.780;2022-07-03T12:56:41;100512.00;;;30.70
9985;BMP180;16737;50.932;6.780;2022-07-03T12:59:24;100509.00;;;30.60
9985;BMP180;16737;50.932;6.780;2022-07-03T13:02:02;100519.00;;;30.50
9985;BMP180;16737;50.932;6.780;2022-07-03T13:04:34;100514.00;;;30.50
9985;BMP180;16737;50.932;6.780;2022-07-03T13:07:04;100498.00;;;30.50
9985;BMP180;16737;50.932;6.780;2022-07-03T13:09:34;100508.00;;;30.50
9985;BMP180;16737;50.932;6.780;2022-07-03T13:12:03;100513.00;;;30.50
9985;BMP180;16737;50.932;6.780;2022-07-03T13:14:30;100526.00;;;30.50
9985;BMP180;16737;50.932;6.780;2022-07-03T13:16:58;100522.00;;;30.50
9985;BMP180;16737;50.932;6.780;2022-07-03T13:19:27;100520.00;;;30.50
9985;BMP180;16737;50.932;6.780;2022-07-03T13:21:57;100524.00;;;30.50
9985;BMP180;16737;50.932;6.780;2022-07-03T13:24:24;100520.00;;;30.60
9985;BMP180;16737;50.932;6.780;2022-07-03T13:26:54;100511.00;;;30.60
9985;BMP180;16737;50.932;6.780;2022-07-03T13:29:21;100513.00;;;30.70
9985;BMP180;16737;50.932;6.780;2022-07-03T13:31:49;100513.00;;;30.50
9985;BMP180;16737;50.932;6.780;2022-07-03T13:34:17;100502.00;;;30.80
9985;BMP180;16737;50.932;6.780;2022-07-03T13:36:44;100521.00;;;30.80
9985;BMP180;16737;50.932;6.780;2022-07-03T13:39:11;100528.00;;;30.80
9985;BMP180;16737;50.932;6.780;2022-07-03T13:41:38;100527.00;;;30.90
9985;BMP180;16737;50.932;6.780;2022-07-03T13:44:07;100521.00;;;30.80
9985;BMP180;16737;50.932;6.780;2022-07-03T13:46:34;100530.00;;;31.10
9985;BMP180;16737;50.932;6.780;2022-07-03T13:49:01;100526.00;;;31.20
9985;BMP180;16737;50.932;6.780;2022-07-03T13:51:28;100518.00;;;31.20
9985;BMP180;16737;50.932;6.780;2022-07-03T13:53:55;100530.00;;;31.20
9985;BMP180;16737;50.932;6.780;2022-07-03T13:56:23;100520.00;;;31.10
9985;BMP180;16737;50.932;6.780;2022-07-03T13:58:50;100516.00;;;31.00
9985;BMP180;16737;50.932;6.780;2022-07-03T14:01:19;100527.00;;;30.80
9985;BMP180;16737;50.932;6.780;2022-07-03T14:03:46;100517.00;;;30.80
9985;BMP180;16737;50.932;6.780;2022-07-03T14:06:13;100520.00;;;30.70
9985;BMP180;16737;50.932;6.780;2022-07-03T14:08:41;100529.00;;;30.60
9985;BMP180;16737;50.932;6.780;2022-07-03T14:11:08;100519.00;;;30.60
9985;BMP180;16737;50.932;6.780;2022-07-03T14:13:35;100527.00;;;30.30
9985;BMP180;16737;50.932;6.780;2022-07-03T14:16:03;100527.00;;;30.40
9985;BMP180;16737;50.932;6.780;2022-07-03T14:18:31;100514.00;;;30.30
9985;BMP180;16737;50.932;6.780;2022-07-03T14:20:59;100513.00;;;30.30
9985;BMP180;16737;50.932;6.780;2022-07-03T14:23:26;100521.00;;;30.30
9985;BMP180;16737;50.932;6.780;2022-07-03T14:25:55;100520.00;;;30.40
9985;BMP180;16737;50.932;6.780;2022-07-03T14:28:22;100523.00;;;30.50
9985;BMP180;16737;50.932;6.780;2022-07-03T14:31:07;100531.00;;;30.50
9985;BMP180;16737;50.932;6.780;2022-07-03T14:33:54;100526.00;;;30.60
9985;BMP180;16737;50.932;6.780;2022-07-03T14:36:21;100529.00;;;30.60